createdAt,value
2023-01-18T00:02:01.114Z,16.10
2023-01-18T00:04:32.019Z,15.30
2023-01-18T00:07:03.252Z,15.35
2023-01-18T00:09:33.957Z,17.48
2023-01-18T00:12:05.091Z,15.70
2023-01-18T00:14:35.677Z,16.77
2023-01-18T00:17:08.095Z,15.02
2023-01-18T00:19:38.762Z,14.35
2023-01-18T00:22:09.605Z,13.57
2023-01-18T00:24:40.223Z,13.38
2023-01-18T00:27:11.709Z,11.85
2023-01-18T00:29:42.377Z,10.85
2023-01-18T00:32:17.024Z,10.68
2023-01-18T00:34:50.407Z,10.20
2023-01-18T00:37:21.524Z,8.55
2023-01-18T00:39:52.227Z,8.15
2023-01-18T00:42:40.264Z,7.55
2023-01-18T00:45:12.055Z,7.43
2023-01-18T00:47:44.575Z,7.40
2023-01-18T00:50:15.225Z,6.40
2023-01-18T00:52:46.813Z,7.05
2023-01-18T00:55:18.346Z,6.60
2023-01-18T00:57:49.472Z,6.78
2023-01-18T01:00:26.965Z,6.45
2023-01-18T01:03:00.005Z,6.78
2023-01-18T01:05:48.440Z,6.03
2023-01-18T01:08:20.006Z,5.68
2023-01-18T01:10:52.534Z,5.32
2023-01-18T01:13:42.822Z,5.68
2023-01-18T01:16:31.105Z,6.15
2023-01-18T01:19:20.814Z,6.75
2023-01-18T01:22:08.987Z,6.82
2023-01-18T01:24:57.389Z,7.20
2023-01-18T01:27:28.683Z,6.38
2023-01-18T01:29:59.745Z,6.93
2023-01-18T01:32:30.498Z,7.05
2023-01-18T01:35:03.064Z,7.15
2023-01-18T01:37:33.851Z,7.10
2023-01-18T01:40:05.334Z,8.48
2023-01-18T01:42:36.040Z,7.88
2023-01-18T01:45:08.595Z,7.32
2023-01-18T01:47:43.393Z,6.88
2023-01-18T01:50:24.777Z,8.00
2023-01-18T01:52:56.944Z,7.05
2023-01-18T01:55:31.982Z,6.67
2023-01-18T01:58:08.580Z,7.28
2023-01-18T02:00:39.695Z,7.25
2023-01-18T02:03:15.804Z,7.65
2023-01-18T02:05:52.522Z,7.72
2023-01-18T02:08:23.620Z,6.90
2023-01-18T02:10:55.210Z,7.20
2023-01-18T02:13:27.391Z,7.57
2023-01-18T02:16:11.601Z,7.07
2023-01-18T02:18:51.285Z,8.07
2023-01-18T02:21:28.825Z,7.15
2023-01-18T02:24:51.297Z,8.35
2023-01-18T02:27:26.849Z,7.97
2023-01-18T02:30:16.139Z,7.93
2023-01-18T02:33:08.816Z,7.70
2023-01-18T02:35:48.783Z,8.20
2023-01-18T02:38:25.128Z,8.32
2023-01-18T02:41:10.473Z,8.52
2023-01-18T02:44:00.804Z,7.95
2023-01-18T02:46:35.086Z,8.40
2023-01-18T02:49:10.808Z,8.55
2023-01-18T02:51:41.544Z,9.40
2023-01-18T02:54:24.395Z,8.75
2023-01-18T02:56:56.745Z,9.35
2023-01-18T02:59:31.284Z,9.48
2023-01-18T03:02:08.277Z,9.93
2023-01-18T03:04:45.048Z,9.55
2023-01-18T03:07:22.114Z,10.48
2023-01-18T03:09:53.975Z,9.68
2023-01-18T03:12:46.189Z,10.20
2023-01-18T03:15:27.386Z,10.60
2023-01-18T03:18:04.828Z,11.10
2023-01-18T03:20:42.609Z,10.95
2023-01-18T03:23:36.448Z,11.43
2023-01-18T03:26:10.043Z,12.40
2023-01-18T03:29:02.359Z,12.07
2023-01-18T03:31:57.322Z,13.27
2023-01-18T03:34:34.060Z,13.18
2023-01-18T03:37:11.194Z,13.05
2023-01-18T03:39:46.763Z,13.77
2023-01-18T03:42:23.162Z,14.18
2023-01-18T03:45:00.001Z,14.05
2023-01-18T03:47:31.959Z,15.07
2023-01-18T03:50:04.090Z,15.02
2023-01-18T03:52:42.217Z,15.30
2023-01-18T03:55:19.245Z,15.57
2023-01-18T03:57:56.541Z,15.80
2023-01-18T04:00:27.166Z,17.00
2023-01-18T04:02:58.615Z,15.27
2023-01-18T04:05:31.556Z,15.93
2023-01-18T04:08:02.641Z,15.50
2023-01-18T04:10:33.350Z,15.55
2023-01-18T04:13:04.467Z,16.27
2023-01-18T04:15:35.167Z,15.63
2023-01-18T04:18:06.631Z,15.93
2023-01-18T04:20:38.739Z,16.27
2023-01-18T04:23:09.881Z,16.33
2023-01-18T04:25:45.902Z,16.10
2023-01-18T04:28:16.875Z,14.55
2023-01-18T04:30:51.047Z,15.80
2023-01-18T04:33:22.984Z,14.90
2023-01-18T04:35:55.586Z,15.55
2023-01-18T04:38:26.487Z,16.25
2023-01-18T04:40:57.003Z,17.73
2023-01-18T04:43:27.932Z,17.65
2023-01-18T04:45:59.252Z,17.75
2023-01-18T04:48:30.378Z,19.58
2023-01-18T04:51:02.472Z,19.23
2023-01-18T04:53:36.044Z,18.98
2023-01-18T04:56:07.054Z,20.08
2023-01-18T04:58:38.479Z,20.17
2023-01-18T05:01:12.396Z,20.88
2023-01-18T05:03:43.623Z,21.98
2023-01-18T05:06:19.993Z,20.58
2023-01-18T05:08:51.170Z,21.92
2023-01-18T05:11:23.338Z,19.83
2023-01-18T05:13:54.385Z,23.17
2023-01-18T05:16:25.585Z,22.70
2023-01-18T05:18:56.523Z,21.45
2023-01-18T05:21:28.789Z,23.13
2023-01-18T05:23:59.775Z,22.20
2023-01-18T05:26:30.530Z,20.33
2023-01-18T05:29:01.470Z,21.40
2023-01-18T05:31:32.233Z,23.88
2023-01-18T05:34:03.198Z,23.77
2023-01-18T05:36:35.286Z,24.48
2023-01-18T05:39:06.605Z,22.63
2023-01-18T05:41:37.215Z,22.95
2023-01-18T05:44:08.608Z,24.60
2023-01-18T05:46:39.273Z,23.25
2023-01-18T05:49:10.211Z,24.08
2023-01-18T05:51:42.322Z,24.02
2023-01-18T05:54:13.424Z,19.30
2023-01-18T05:56:44.031Z,22.48
2023-01-18T05:59:15.779Z,22.67
2023-01-18T06:01:46.441Z,23.08
2023-01-18T06:04:17.375Z,24.10
2023-01-18T06:06:49.427Z,23.67
2023-01-18T06:09:20.299Z,23.95
2023-01-18T06:11:50.840Z,22.15
2023-01-18T06:14:21.803Z,23.25
2023-01-18T06:16:52.355Z,21.70
2023-01-18T06:19:23.284Z,22.40
2023-01-18T06:21:55.718Z,20.98
2023-01-18T06:24:26.819Z,18.33
2023-01-18T06:26:57.745Z,22.92
2023-01-18T06:29:28.722Z,20.70
2023-01-18T06:31:59.449Z,21.80
2023-01-18T06:34:30.750Z,21.25
2023-01-18T06:37:02.965Z,24.48
2023-01-18T06:39:34.066Z,24.03
2023-01-18T06:42:05.001Z,23.83
2023-01-18T06:44:35.900Z,21.65
2023-01-18T06:47:06.616Z,22.65
2023-01-18T06:49:37.646Z,21.70
2023-01-18T06:52:09.872Z,20.60
2023-01-18T06:54:40.744Z,21.33
2023-01-18T06:57:11.289Z,20.50
2023-01-18T06:59:42.430Z,21.55
2023-01-18T07:02:16.624Z,24.92
2023-01-18T07:04:47.680Z,27.08
2023-01-18T07:07:19.726Z,28.92
2023-01-18T07:09:50.864Z,21.73
2023-01-18T07:12:21.711Z,31.80
2023-01-18T07:14:52.689Z,29.02
2023-01-18T07:17:23.253Z,31.13
2023-01-18T07:19:54.190Z,32.60
2023-01-18T07:22:26.427Z,32.35
2023-01-18T07:24:57.530Z,30.30
2023-01-18T07:27:28.375Z,32.13
2023-01-18T07:29:59.359Z,33.00
2023-01-18T07:32:30.086Z,34.22
2023-01-18T07:35:00.984Z,33.53
2023-01-18T07:37:33.012Z,36.88
2023-01-18T07:40:04.378Z,35.00
2023-01-18T07:42:34.872Z,36.08
2023-01-18T07:45:08.857Z,34.58
2023-01-18T07:47:39.812Z,34.72
2023-01-18T07:50:14.194Z,37.88
2023-01-18T07:52:46.178Z,37.17
2023-01-18T07:55:17.413Z,39.35
2023-01-18T07:57:48.087Z,38.42
2023-01-18T08:00:20.505Z,37.97
2023-01-18T08:02:57.032Z,38.90
2023-01-18T08:05:29.943Z,37.75
2023-01-18T08:08:02.063Z,37.60
2023-01-18T08:10:33.229Z,37.77
2023-01-18T08:13:03.942Z,37.17
2023-01-18T08:15:35.270Z,38.75
2023-01-18T08:18:07.021Z,40.28
2023-01-18T08:20:38.234Z,37.13
2023-01-18T08:23:10.401Z,38.60
2023-01-18T08:25:41.896Z,35.60
2023-01-18T08:28:13.834Z,41.05
2023-01-18T08:30:50.437Z,40.78
2023-01-18T08:33:22.418Z,46.70
2023-01-18T08:35:53.522Z,42.72
2023-01-18T08:38:25.605Z,42.25
2023-01-18T08:40:56.547Z,45.40
2023-01-18T08:43:27.175Z,41.35
2023-01-18T08:45:58.198Z,38.95
2023-01-18T08:48:29.038Z,38.03
2023-01-18T08:51:03.479Z,35.88
2023-01-18T08:53:35.461Z,38.03
2023-01-18T08:56:07.727Z,40.45
2023-01-18T08:58:38.373Z,39.67
2023-01-18T09:01:10.588Z,35.72
2023-01-18T09:03:42.111Z,39.92
2023-01-18T09:06:13.294Z,39.53
2023-01-18T09:08:47.805Z,36.75
2023-01-18T09:11:19.578Z,36.67
2023-01-18T09:14:00.626Z,35.22
2023-01-18T09:16:32.492Z,37.13
2023-01-18T09:19:06.470Z,38.40
2023-01-18T09:21:37.665Z,41.13
2023-01-18T09:24:10.162Z,37.47
2023-01-18T09:26:41.098Z,38.90
2023-01-18T09:29:11.899Z,40.75
2023-01-18T09:31:43.243Z,39.80
2023-01-18T09:34:20.018Z,39.03
2023-01-18T09:36:52.636Z,39.85
2023-01-18T09:39:25.233Z,38.95
2023-01-18T09:42:00.361Z,38.50
2023-01-18T09:44:36.137Z,42.92
2023-01-18T09:47:14.043Z,43.28
2023-01-18T09:49:55.120Z,40.47
2023-01-18T09:52:47.360Z,42.75
2023-01-18T09:55:33.331Z,41.47
2023-01-18T09:58:30.778Z,41.95
2023-01-18T10:01:08.154Z,35.08
2023-01-18T10:03:51.997Z,35.90
2023-01-18T10:06:27.693Z,34.47
2023-01-18T10:09:04.405Z,33.00
2023-01-18T10:11:45.093Z,35.03
2023-01-18T10:14:25.067Z,33.53
2023-01-18T10:16:59.271Z,38.50
2023-01-18T10:19:33.674Z,41.97
2023-01-18T10:22:14.279Z,33.58
2023-01-18T10:24:57.643Z,33.88
2023-01-18T10:27:51.258Z,31.40
2023-01-18T10:33:20.282Z,27.60
2023-01-18T10:35:55.361Z,28.13
2023-01-18T10:38:30.859Z,27.52
2023-01-18T10:41:04.438Z,27.23
2023-01-18T10:43:44.595Z,27.60
2023-01-18T10:46:18.968Z,25.80
2023-01-18T10:48:51.843Z,24.30
2023-01-18T10:51:35.291Z,26.15
2023-01-18T10:54:25.073Z,26.63
2023-01-18T10:57:04.527Z,26.50
2023-01-18T10:59:40.066Z,23.63
2023-01-18T11:02:24.554Z,23.23
2023-01-18T11:05:21.249Z,23.02
2023-01-18T11:08:13.720Z,26.20
2023-01-18T11:10:45.175Z,26.23
2023-01-18T11:13:32.033Z,27.55
2023-01-18T11:16:28.898Z,26.98
2023-01-18T11:19:04.621Z,29.10
2023-01-18T11:21:49.392Z,31.40
2023-01-18T11:24:28.967Z,31.42
2023-01-18T11:27:04.076Z,31.42
2023-01-18T11:29:39.722Z,43.65
2023-01-18T11:32:24.095Z,42.65
2023-01-18T11:34:58.850Z,34.20
2023-01-18T11:37:34.557Z,40.92
2023-01-18T11:40:30.391Z,38.15
2023-01-18T11:43:05.798Z,37.00
2023-01-18T11:45:44.593Z,36.35
2023-01-18T11:48:30.129Z,29.48
2023-01-18T11:51:07.353Z,35.60
2023-01-18T11:53:49.004Z,34.53
2023-01-18T11:56:32.521Z,37.47
2023-01-18T11:59:04.634Z,35.25
2023-01-18T12:02:02.388Z,38.10
2023-01-18T12:04:50.448Z,41.30
2023-01-18T12:07:40.416Z,40.45
2023-01-18T12:10:20.539Z,34.47
2023-01-18T12:13:20.255Z,34.88
2023-01-18T12:16:04.585Z,37.22
2023-01-18T12:19:27.169Z,34.72
2023-01-18T12:22:20.889Z,37.58
2023-01-18T12:25:16.687Z,37.83
2023-01-18T12:28:01.252Z,34.83
2023-01-18T12:30:53.372Z,38.63
2023-01-18T12:33:43.781Z,38.90
2023-01-18T12:36:30.308Z,32.10
2023-01-18T12:39:09.909Z,37.05
2023-01-18T12:41:51.984Z,45.10
2023-01-18T12:44:51.941Z,39.40
2023-01-18T12:47:37.053Z,38.05
2023-01-18T12:50:23.342Z,36.03
2023-01-18T12:53:01.357Z,36.72
2023-01-18T12:55:36.328Z,36.65
2023-01-18T12:58:07.837Z,34.20
2023-01-18T13:00:46.214Z,36.30
2023-01-18T13:03:24.954Z,34.53
2023-01-18T13:05:59.552Z,35.60
2023-01-18T13:08:40.444Z,33.72
2023-01-18T13:11:17.562Z,38.00
2023-01-18T13:13:52.004Z,35.80
2023-01-18T13:16:41.098Z,38.88
2023-01-18T13:19:15.592Z,40.28
2023-01-18T13:22:08.725Z,36.72
2023-01-18T13:24:58.713Z,36.15
2023-01-18T13:27:32.935Z,37.03
2023-01-18T13:30:16.959Z,41.00
2023-01-18T13:32:49.311Z,40.40
2023-01-18T13:35:28.864Z,38.95
2023-01-18T13:38:02.971Z,37.78
2023-01-18T13:40:39.337Z,36.10
2023-01-18T13:43:54.807Z,37.30
2023-01-18T13:46:27.475Z,37.75
2023-01-18T13:49:00.334Z,34.75
2023-01-18T13:51:57.488Z,36.03
2023-01-18T13:55:05.449Z,35.75
2023-01-18T13:57:37.225Z,34.83
2023-01-18T14:00:25.877Z,34.55
2023-01-18T14:03:06.412Z,35.47
2023-01-18T14:05:43.863Z,37.78
2023-01-18T14:08:23.501Z,39.72
2023-01-18T14:10:57.275Z,37.38
2023-01-18T14:14:03.873Z,39.42
2023-01-18T14:16:42.292Z,39.83
2023-01-18T14:19:20.069Z,43.08
2023-01-18T14:22:21.625Z,48.95
2023-01-18T14:25:20.914Z,45.17
2023-01-18T14:28:02.934Z,35.25
2023-01-18T14:30:37.427Z,37.63
2023-01-18T14:33:24.875Z,37.05
2023-01-18T14:35:59.138Z,40.47
2023-01-18T14:38:30.691Z,46.30
2023-01-18T14:41:06.834Z,48.53
2023-01-18T14:43:45.640Z,46.42
2023-01-18T14:46:23.277Z,40.50
2023-01-18T14:48:58.600Z,43.70
2023-01-18T14:51:32.126Z,41.53
2023-01-18T14:54:05.258Z,43.42
2023-01-18T14:59:23.454Z,41.72
2023-01-18T15:01:57.159Z,42.08
2023-01-18T15:07:04.580Z,41.07
2023-01-18T15:09:38.718Z,41.50
2023-01-18T15:12:14.118Z,44.05
2023-01-18T15:14:48.678Z,41.47
2023-01-18T15:17:24.133Z,42.22
2023-01-18T15:19:59.908Z,42.47
2023-01-18T15:22:35.907Z,46.58
2023-01-18T15:25:18.655Z,48.20
2023-01-18T15:27:52.963Z,49.92
2023-01-18T15:30:26.304Z,56.58
2023-01-18T15:33:02.206Z,51.35
2023-01-18T15:35:34.609Z,51.85
2023-01-18T15:38:06.057Z,53.15
2023-01-18T15:40:37.156Z,53.47
2023-01-18T15:43:10.892Z,54.70
2023-01-18T15:48:23.170Z,48.22
2023-01-18T15:53:32.587Z,48.25
2023-01-18T15:56:06.145Z,57.50
2023-01-18T15:58:42.986Z,65.43
2023-01-18T16:01:20.836Z,66.28
2023-01-18T16:04:00.695Z,69.47
2023-01-18T16:06:37.162Z,68.93
2023-01-18T16:09:21.583Z,58.15
2023-01-18T16:11:54.637Z,51.40
2023-01-18T16:14:35.424Z,42.03
2023-01-18T16:17:09.574Z,44.42
2023-01-18T16:19:44.670Z,42.90
2023-01-18T16:22:23.067Z,49.03
2023-01-18T16:24:58.559Z,52.78
2023-01-18T16:27:32.648Z,43.33
2023-01-18T16:30:07.679Z,44.10
2023-01-18T16:32:39.060Z,44.00
2023-01-18T16:35:16.823Z,47.70
2023-01-18T16:37:49.884Z,44.00
2023-01-18T16:43:01.326Z,48.47
2023-01-18T16:45:35.944Z,49.13
2023-01-18T16:48:09.017Z,47.15
2023-01-18T16:53:12.016Z,49.55
2023-01-18T16:55:44.183Z,53.13
2023-01-18T16:58:16.519Z,51.88
2023-01-18T17:00:57.700Z,55.80
2023-01-18T17:03:28.925Z,56.55
2023-01-18T17:06:00.048Z,51.38
2023-01-18T17:08:33.142Z,52.33
2023-01-18T17:11:04.374Z,56.03
2023-01-18T17:13:35.298Z,56.38
2023-01-18T17:16:06.625Z,63.03
2023-01-18T17:18:37.185Z,60.03
2023-01-18T17:21:10.916Z,51.70
2023-01-18T17:23:42.933Z,50.97
2023-01-18T17:26:16.795Z,56.70
2023-01-18T17:31:18.253Z,63.33
2023-01-18T17:33:48.999Z,67.55
2023-01-18T17:36:20.091Z,53.83
2023-01-18T17:38:52.256Z,54.83
2023-01-18T17:41:27.274Z,69.18
2023-01-18T17:43:59.042Z,66.57
2023-01-18T17:46:30.102Z,69.78
2023-01-18T17:49:00.983Z,59.03
2023-01-18T17:51:34.195Z,56.92
2023-01-18T17:54:13.186Z,59.65
2023-01-18T17:56:51.354Z,70.30
2023-01-18T17:59:22.211Z,69.75
2023-01-18T18:01:53.607Z,70.28
2023-01-18T18:04:24.500Z,69.95
2023-01-18T18:06:58.663Z,69.85
2023-01-18T18:09:32.154Z,70.93
2023-01-18T18:12:03.121Z,63.92
2023-01-18T18:14:34.896Z,76.03
2023-01-18T18:17:07.630Z,72.13
2023-01-18T18:19:38.209Z,84.65
2023-01-18T18:22:09.366Z,81.22
2023-01-18T18:24:41.669Z,72.22
2023-01-18T18:27:12.817Z,62.20
2023-01-18T18:29:43.745Z,61.28
2023-01-18T18:32:15.700Z,66.70
2023-01-18T18:34:46.253Z,63.03
2023-01-18T18:37:19.267Z,66.18
2023-01-18T18:39:51.481Z,67.57
2023-01-18T18:42:22.587Z,61.70
2023-01-18T18:44:53.289Z,67.20
2023-01-18T18:47:24.267Z,75.07
2023-01-18T18:49:54.967Z,83.43
2023-01-18T18:52:26.226Z,78.35
2023-01-18T18:54:58.981Z,76.68
2023-01-18T18:57:33.061Z,77.03
2023-01-18T19:00:07.626Z,75.38
2023-01-18T19:02:38.700Z,80.25
2023-01-18T19:05:10.748Z,82.45
2023-01-18T19:07:42.573Z,84.13
2023-01-18T19:10:15.139Z,81.55
2023-01-18T19:12:46.137Z,78.10
2023-01-18T19:15:17.624Z,83.50
2023-01-18T19:17:51.297Z,89.05
2023-01-18T19:20:22.346Z,83.93
2023-01-18T19:22:53.667Z,92.43
2023-01-18T19:25:26.592Z,91.47
2023-01-18T19:27:57.700Z,85.45
2023-01-18T19:30:30.339Z,82.93
2023-01-18T19:33:03.990Z,82.60
2023-01-18T19:35:40.922Z,81.17
2023-01-18T19:38:12.405Z,78.88
2023-01-18T19:40:44.497Z,80.88
2023-01-18T19:43:15.567Z,88.13
2023-01-18T19:45:46.457Z,102.00
2023-01-18T19:48:18.133Z,91.60
2023-01-18T19:50:50.165Z,80.80
2023-01-18T19:53:21.448Z,86.28
2023-01-18T19:56:06.924Z,91.60
2023-01-18T19:58:41.874Z,88.63
2023-01-18T20:01:23.447Z,80.75
2023-01-18T20:04:01.007Z,75.05
2023-01-18T20:06:32.356Z,73.50
2023-01-18T20:09:07.448Z,72.75
2023-01-18T20:11:45.907Z,72.65
2023-01-18T20:14:18.514Z,69.25
2023-01-18T20:16:50.045Z,74.00
2023-01-18T20:19:23.613Z,75.57
2023-01-18T20:21:55.302Z,77.10
2023-01-18T20:24:28.774Z,74.07
2023-01-18T20:27:14.872Z,71.53
2023-01-18T20:29:48.593Z,68.25
2023-01-18T20:32:21.830Z,69.15
2023-01-18T20:34:53.808Z,67.60
2023-01-18T20:37:25.328Z,74.05
2023-01-18T20:39:59.813Z,71.90
2023-01-18T20:42:32.064Z,65.07
2023-01-18T20:45:06.340Z,69.68
2023-01-18T20:47:39.740Z,61.85
2023-01-18T20:50:12.884Z,64.35
2023-01-18T20:52:45.810Z,63.65
2023-01-18T20:55:19.352Z,60.22
2023-01-18T20:57:54.700Z,61.78
2023-01-18T21:00:26.996Z,61.30
2023-01-18T21:02:59.447Z,40.08
2023-01-18T21:05:31.795Z,67.40
2023-01-18T21:08:05.448Z,70.97
2023-01-18T21:10:39.880Z,66.88
2023-01-18T21:13:13.671Z,52.95
2023-01-18T21:15:46.605Z,51.60
2023-01-18T21:18:17.351Z,57.70
2023-01-18T21:20:54.179Z,56.05
2023-01-18T21:23:27.182Z,58.63
2023-01-18T21:26:02.552Z,67.45
2023-01-18T21:28:34.862Z,68.03
2023-01-18T21:31:07.775Z,67.07
2023-01-18T21:33:42.583Z,58.93
2023-01-18T21:36:17.627Z,56.50
2023-01-18T21:38:49.187Z,63.42
2023-01-18T21:41:37.973Z,62.08
2023-01-18T21:44:31.319Z,62.33
2023-01-18T21:47:03.617Z,58.63
2023-01-18T21:50:15.971Z,45.80
2023-01-18T21:53:02.229Z,52.80
2023-01-18T21:55:33.183Z,51.10
2023-01-18T21:58:23.765Z,54.72
2023-01-18T22:01:00.596Z,54.28
2023-01-18T22:03:32.045Z,63.05
2023-01-18T22:06:03.824Z,56.28
2023-01-18T22:08:36.670Z,49.33
2023-01-18T22:11:07.632Z,60.00
2023-01-18T22:13:38.707Z,60.45
2023-01-18T22:16:14.434Z,60.30
2023-01-18T22:18:46.835Z,64.38
2023-01-18T22:21:18.125Z,66.07
2023-01-18T22:23:55.867Z,66.68
2023-01-18T22:26:31.775Z,66.53
2023-01-18T22:29:03.183Z,68.75
2023-01-18T22:31:38.475Z,68.93
2023-01-18T22:34:10.736Z,68.85
2023-01-18T22:36:43.868Z,64.25
2023-01-18T22:39:17.112Z,62.80
2023-01-18T22:41:48.930Z,66.15
2023-01-18T22:44:22.405Z,64.55
2023-01-18T22:46:55.617Z,68.43
2023-01-18T22:49:28.045Z,69.03
2023-01-18T22:51:58.993Z,63.70
2023-01-18T22:54:30.544Z,72.43
2023-01-18T22:57:01.419Z,71.43
2023-01-18T22:59:36.984Z,71.57
2023-01-18T23:02:09.363Z,65.88
2023-01-18T23:04:41.217Z,66.68
2023-01-18T23:07:14.276Z,69.35
2023-01-18T23:09:46.602Z,68.90
2023-01-18T23:12:17.506Z,62.92
2023-01-18T23:15:04.833Z,71.07
2023-01-18T23:17:43.362Z,71.28
2023-01-18T23:20:16.823Z,67.25
2023-01-18T23:22:47.473Z,68.38
2023-01-18T23:25:19.355Z,67.05
2023-01-18T23:27:49.986Z,64.95
2023-01-18T23:30:25.247Z,63.50
2023-01-18T23:32:57.740Z,61.80
2023-01-18T23:35:29.191Z,63.08
2023-01-18T23:38:01.149Z,57.92
2023-01-18T23:40:51.849Z,62.13
2023-01-18T23:43:39.484Z,56.25
2023-01-18T23:46:27.949Z,59.13
2023-01-18T23:49:17.377Z,60.65
2023-01-18T23:52:05.579Z,55.83
2023-01-18T23:54:37.099Z,52.25
2023-01-18T23:57:08.759Z,50.47
2023-01-18T23:59:42.057Z,62.63
